createdAt,value
2022-08-31T00:01:50.762Z,34.87
2022-08-31T00:04:17.692Z,36.88
2022-08-31T00:06:44.378Z,36.42
2022-08-31T00:09:10.982Z,38.95
2022-08-31T00:11:38.718Z,40.08
2022-08-31T00:14:12.484Z,40.83
2022-08-31T00:16:43.497Z,43.38
2022-08-31T00:19:10.306Z,41.27
2022-08-31T00:21:39.067Z,36.33
2022-08-31T00:24:06.298Z,42.13
2022-08-31T00:26:33.149Z,39.00
2022-08-31T00:28:59.935Z,36.20
2022-08-31T00:31:26.663Z,38.65
2022-08-31T00:33:53.559Z,34.63
2022-08-31T00:36:23.811Z,36.70
2022-08-31T00:38:51.868Z,33.78
2022-08-31T00:41:22.521Z,32.50
2022-08-31T00:44:01.009Z,35.88
2022-08-31T00:46:34.102Z,40.33
2022-08-31T00:49:18.590Z,34.47
2022-08-31T00:51:58.885Z,34.30
2022-08-31T00:54:30.733Z,36.00
2022-08-31T00:56:57.838Z,42.20
2022-08-31T00:59:25.496Z,39.80
2022-08-31T01:01:52.263Z,45.28
2022-08-31T01:04:19.096Z,43.22
2022-08-31T01:06:47.380Z,40.67
2022-08-31T01:09:14.829Z,46.77
2022-08-31T01:11:42.360Z,51.38
2022-08-31T01:14:10.885Z,50.10
2022-08-31T01:16:51.864Z,57.50
2022-08-31T01:19:27.576Z,55.78
2022-08-31T01:22:15.296Z,40.73
2022-08-31T01:24:45.137Z,52.42
2022-08-31T01:27:13.765Z,62.42
2022-08-31T01:29:40.979Z,53.72
2022-08-31T01:32:08.098Z,54.87
2022-08-31T01:34:35.355Z,50.30
2022-08-31T01:37:02.503Z,55.75
2022-08-31T01:39:29.281Z,56.13
2022-08-31T01:41:56.341Z,60.20
2022-08-31T01:44:25.247Z,66.47
2022-08-31T01:46:52.309Z,57.38
2022-08-31T01:49:21.393Z,66.63
2022-08-31T01:51:51.837Z,66.50
2022-08-31T01:54:19.091Z,65.28
2022-08-31T01:56:47.586Z,60.58
2022-08-31T01:59:22.249Z,61.37
2022-08-31T02:02:09.263Z,58.72
2022-08-31T02:04:36.980Z,64.28
2022-08-31T02:07:03.767Z,68.47
2022-08-31T02:09:33.971Z,53.30
2022-08-31T02:12:00.678Z,62.13
2022-08-31T02:14:27.388Z,61.90
2022-08-31T02:16:54.157Z,43.75
2022-08-31T02:19:20.875Z,55.17
2022-08-31T02:21:47.564Z,54.90
2022-08-31T02:24:14.322Z,53.30
2022-08-31T02:26:41.243Z,53.08
2022-08-31T02:29:08.225Z,44.28
2022-08-31T02:31:35.415Z,61.55
2022-08-31T02:34:03.082Z,67.47
2022-08-31T02:36:31.534Z,47.50
2022-08-31T02:39:02.024Z,50.20
2022-08-31T02:41:29.015Z,63.05
2022-08-31T02:43:55.669Z,55.75
2022-08-31T02:46:22.436Z,54.97
2022-08-31T02:49:18.968Z,66.17
2022-08-31T02:51:46.236Z,69.53
2022-08-31T02:54:13.594Z,73.70
2022-08-31T02:56:40.911Z,85.40
2022-08-31T02:59:08.440Z,78.40
2022-08-31T03:01:37.099Z,73.60
2022-08-31T03:04:05.242Z,86.57
2022-08-31T03:06:32.594Z,81.23
2022-08-31T03:09:01.141Z,74.78
2022-08-31T03:11:28.827Z,75.03
2022-08-31T03:13:58.622Z,86.63
2022-08-31T03:16:25.897Z,76.57
2022-08-31T03:18:52.720Z,69.63
2022-08-31T03:21:19.517Z,74.68
2022-08-31T03:23:46.368Z,75.57
2022-08-31T03:26:16.278Z,81.10
2022-08-31T03:28:42.987Z,85.90
2022-08-31T03:31:31.625Z,65.07
2022-08-31T03:33:59.186Z,59.42
2022-08-31T03:36:26.100Z,62.88
2022-08-31T03:38:52.748Z,80.72
2022-08-31T03:41:22.734Z,65.80
2022-08-31T03:43:49.495Z,79.75
2022-08-31T03:46:16.980Z,65.70
2022-08-31T03:48:46.888Z,73.38
2022-08-31T03:51:15.594Z,76.00
2022-08-31T03:53:44.567Z,81.35
2022-08-31T03:56:16.914Z,81.18
2022-08-31T03:58:43.661Z,93.30
2022-08-31T04:01:15.096Z,109.97
2022-08-31T04:04:12.772Z,86.95
2022-08-31T04:06:58.354Z,88.78
2022-08-31T04:09:43.582Z,106.90
2022-08-31T04:12:40.042Z,97.93
2022-08-31T04:15:29.784Z,108.00
2022-08-31T04:18:28.636Z,121.77
2022-08-31T04:20:55.337Z,123.35
2022-08-31T04:23:24.306Z,132.73
2022-08-31T04:25:52.652Z,167.85
2022-08-31T04:28:19.456Z,178.52
2022-08-31T04:30:46.744Z,167.87
2022-08-31T04:33:16.415Z,181.25
2022-08-31T04:35:44.264Z,206.43
2022-08-31T04:38:12.104Z,206.20
2022-08-31T04:40:43.071Z,224.33
2022-08-31T04:43:10.612Z,231.15
2022-08-31T04:45:42.044Z,236.63
2022-08-31T04:48:11.359Z,241.60
2022-08-31T04:50:42.511Z,237.00
2022-08-31T04:53:10.031Z,248.82
2022-08-31T04:55:41.630Z,232.73
2022-08-31T04:58:11.802Z,239.85
2022-08-31T05:00:38.488Z,253.05
2022-08-31T05:03:41.184Z,234.48
2022-08-31T05:06:14.190Z,214.88
2022-08-31T05:08:44.779Z,231.73
2022-08-31T05:11:19.839Z,244.32
2022-08-31T05:13:50.521Z,227.23
2022-08-31T05:16:17.853Z,222.02
2022-08-31T05:18:46.318Z,205.57
2022-08-31T05:21:21.033Z,186.88
2022-08-31T05:23:48.799Z,172.82
2022-08-31T05:26:23.512Z,168.77
2022-08-31T05:28:55.265Z,172.27
2022-08-31T05:31:26.730Z,167.95
2022-08-31T05:33:56.086Z,130.52
2022-08-31T05:36:33.896Z,122.07
2022-08-31T05:39:03.944Z,105.85
2022-08-31T05:41:31.553Z,93.55
2022-08-31T05:43:58.630Z,82.75
2022-08-31T05:46:25.453Z,73.85
2022-08-31T05:48:52.117Z,64.90
2022-08-31T05:51:19.358Z,63.83
2022-08-31T05:53:46.865Z,57.28
2022-08-31T05:56:20.125Z,57.60
2022-08-31T05:58:52.811Z,50.83
2022-08-31T06:01:24.406Z,45.55
2022-08-31T06:04:02.755Z,40.88
2022-08-31T06:06:31.860Z,37.65
2022-08-31T06:08:59.073Z,35.97
2022-08-31T06:11:30.529Z,34.50
2022-08-31T06:13:59.009Z,33.42
2022-08-31T06:16:26.879Z,24.98
2022-08-31T06:18:55.575Z,25.63
2022-08-31T06:21:25.478Z,17.57
2022-08-31T06:23:54.088Z,14.88
2022-08-31T06:26:23.582Z,12.70
2022-08-31T06:28:53.509Z,10.82
2022-08-31T06:31:26.808Z,8.13
2022-08-31T06:33:55.894Z,8.32
2022-08-31T06:36:48.910Z,5.90
2022-08-31T06:39:45.097Z,6.30
2022-08-31T06:42:30.440Z,5.35
2022-08-31T06:45:05.317Z,5.07
2022-08-31T06:47:41.843Z,4.88
2022-08-31T06:50:12.250Z,4.60
2022-08-31T06:52:39.226Z,5.05
2022-08-31T06:55:17.429Z,5.20
2022-08-31T06:58:04.046Z,5.90
2022-08-31T07:01:08.423Z,6.43
2022-08-31T07:04:12.281Z,4.72
2022-08-31T07:06:42.416Z,4.93
2022-08-31T07:09:15.948Z,4.90
2022-08-31T07:11:45.707Z,4.70
2022-08-31T07:14:16.024Z,4.37
2022-08-31T07:16:44.371Z,4.63
2022-08-31T07:19:12.758Z,4.05
2022-08-31T07:21:43.607Z,4.38
2022-08-31T07:24:12.229Z,3.70
2022-08-31T07:27:02.301Z,3.92
2022-08-31T07:29:40.647Z,3.72
2022-08-31T07:32:13.479Z,3.70
2022-08-31T07:34:41.710Z,2.95
2022-08-31T07:37:56.308Z,3.20
2022-08-31T07:40:44.645Z,3.60
2022-08-31T07:43:14.109Z,3.50
2022-08-31T07:45:41.758Z,3.00
2022-08-31T07:48:09.397Z,2.70
2022-08-31T07:51:11.368Z,2.10
2022-08-31T07:54:06.904Z,1.65
2022-08-31T07:56:42.080Z,2.53
2022-08-31T07:59:11.388Z,2.70
2022-08-31T08:01:41.300Z,1.63
2022-08-31T08:04:09.568Z,1.65
2022-08-31T08:06:56.451Z,1.95
2022-08-31T08:09:49.107Z,2.47
2022-08-31T08:12:25.261Z,1.45
2022-08-31T08:15:06.609Z,3.75
2022-08-31T08:18:00.305Z,1.55
2022-08-31T08:20:37.963Z,4.25
2022-08-31T08:23:14.382Z,1.50
2022-08-31T08:26:01.188Z,2.80
2022-08-31T08:28:47.865Z,2.90
2022-08-31T08:31:17.875Z,2.83
2022-08-31T08:33:46.016Z,1.88
2022-08-31T08:36:17.056Z,1.40
2022-08-31T08:38:46.295Z,3.22
2022-08-31T08:41:20.058Z,1.50
2022-08-31T08:43:52.672Z,1.50
2022-08-31T08:46:40.243Z,1.40
2022-08-31T08:49:28.316Z,1.80
2022-08-31T08:52:03.804Z,1.73
2022-08-31T08:54:34.827Z,2.17
2022-08-31T08:57:14.052Z,1.67
2022-08-31T08:59:44.352Z,1.30
2022-08-31T09:02:17.253Z,1.75
2022-08-31T09:05:35.181Z,1.38
2022-08-31T09:09:12.062Z,2.08
2022-08-31T09:12:14.860Z,3.77
2022-08-31T09:15:41.595Z,2.00
2022-08-31T09:18:33.139Z,1.43
2022-08-31T09:21:21.810Z,1.42
2022-08-31T09:24:02.298Z,3.53
2022-08-31T09:27:20.163Z,3.13
2022-08-31T09:30:00.518Z,1.98
2022-08-31T09:32:31.476Z,2.53
2022-08-31T09:35:23.697Z,2.60
2022-08-31T09:38:02.354Z,1.47
2022-08-31T09:40:37.054Z,1.55
2022-08-31T09:43:25.809Z,2.65
2022-08-31T09:46:02.462Z,1.35
2022-08-31T09:48:56.127Z,1.38
2022-08-31T09:51:29.888Z,2.47
2022-08-31T09:54:35.305Z,1.92
2022-08-31T09:57:05.386Z,1.45
2022-08-31T09:59:44.064Z,3.50
2022-08-31T10:02:22.771Z,2.75
2022-08-31T10:04:54.362Z,1.80
2022-08-31T10:07:42.987Z,3.97
2022-08-31T10:10:28.077Z,1.30
2022-08-31T10:13:18.779Z,3.50
2022-08-31T10:16:02.438Z,1.85
2022-08-31T10:18:42.228Z,1.60
2022-08-31T10:21:21.155Z,2.42
2022-08-31T10:24:28.650Z,3.78
2022-08-31T10:27:03.063Z,1.30
2022-08-31T10:29:48.617Z,3.78
2022-08-31T10:32:36.679Z,1.48
2022-08-31T10:35:11.233Z,1.63
2022-08-31T10:37:55.064Z,2.80
2022-08-31T10:40:28.773Z,1.30
2022-08-31T10:43:11.980Z,2.03
2022-08-31T10:45:44.254Z,2.20
2022-08-31T10:48:13.183Z,1.25
2022-08-31T10:51:05.638Z,5.70
2022-08-31T10:53:54.797Z,1.55
2022-08-31T10:56:59.254Z,3.55
2022-08-31T10:59:37.065Z,2.65
2022-08-31T11:02:31.538Z,1.92
2022-08-31T11:05:29.857Z,5.33
2022-08-31T11:08:17.135Z,1.77
2022-08-31T11:11:13.033Z,2.28
2022-08-31T11:14:16.109Z,1.27
2022-08-31T11:17:14.812Z,1.20
2022-08-31T11:20:17.187Z,1.50
2022-08-31T11:23:17.801Z,1.20
2022-08-31T11:26:00.635Z,2.00
2022-08-31T11:29:00.747Z,1.35
2022-08-31T11:31:33.427Z,1.30
2022-08-31T11:34:28.824Z,1.02
2022-08-31T11:37:00.078Z,1.63
2022-08-31T11:39:37.490Z,2.15
2022-08-31T11:42:12.583Z,1.13
2022-08-31T11:44:43.363Z,5.95
2022-08-31T11:47:28.310Z,1.20
2022-08-31T11:50:03.973Z,2.33
2022-08-31T11:52:43.815Z,2.13
2022-08-31T11:55:23.128Z,2.20
2022-08-31T11:58:11.502Z,1.33
2022-08-31T12:00:58.731Z,1.20
2022-08-31T12:03:40.221Z,3.03
2022-08-31T12:06:37.216Z,1.35
2022-08-31T12:09:25.607Z,1.98
2022-08-31T12:12:06.652Z,3.83
2022-08-31T12:14:51.130Z,2.25
2022-08-31T12:17:38.257Z,2.65
2022-08-31T12:20:18.168Z,2.97
2022-08-31T12:23:35.476Z,1.17
2022-08-31T12:26:14.358Z,1.10
2022-08-31T12:29:02.649Z,1.10
2022-08-31T12:31:29.995Z,1.05
2022-08-31T12:34:12.969Z,1.98
2022-08-31T12:36:40.315Z,1.10
2022-08-31T12:39:19.644Z,1.90
2022-08-31T12:42:05.570Z,1.60
2022-08-31T12:44:50.389Z,1.55
2022-08-31T12:47:43.109Z,1.48
2022-08-31T12:50:56.404Z,1.60
2022-08-31T12:53:44.491Z,1.83
2022-08-31T12:56:20.029Z,1.08
2022-08-31T12:59:20.406Z,2.07
2022-08-31T13:01:49.514Z,1.52
2022-08-31T13:04:22.207Z,1.55
2022-08-31T13:06:50.606Z,3.63
2022-08-31T13:09:24.591Z,3.28
2022-08-31T13:11:53.823Z,2.50
2022-08-31T13:14:28.413Z,1.47
2022-08-31T13:17:05.462Z,1.75
2022-08-31T13:19:34.532Z,1.10
2022-08-31T13:22:12.115Z,3.05
2022-08-31T13:24:42.048Z,0.98
2022-08-31T13:27:28.281Z,1.40
2022-08-31T13:30:10.538Z,3.80
2022-08-31T13:32:40.899Z,2.70
2022-08-31T13:35:13.570Z,1.20
2022-08-31T13:37:53.200Z,1.40
2022-08-31T13:40:24.814Z,1.75
2022-08-31T13:42:56.858Z,1.83
2022-08-31T13:45:37.920Z,1.00
2022-08-31T13:48:26.435Z,1.20
2022-08-31T13:51:00.552Z,1.10
2022-08-31T13:53:46.663Z,1.00
2022-08-31T13:56:40.806Z,2.88
2022-08-31T13:59:26.460Z,2.50
2022-08-31T14:02:30.935Z,1.10
2022-08-31T14:05:05.494Z,1.83
2022-08-31T14:07:45.834Z,1.42
2022-08-31T14:10:24.173Z,2.20
2022-08-31T14:12:59.203Z,1.67
2022-08-31T14:15:52.499Z,1.10
2022-08-31T14:18:31.754Z,1.10
2022-08-31T14:21:23.740Z,3.53
2022-08-31T14:24:01.200Z,2.03
2022-08-31T14:26:34.413Z,0.80
2022-08-31T14:29:09.917Z,1.10
2022-08-31T14:31:42.886Z,0.70
2022-08-31T14:34:30.317Z,1.17
2022-08-31T14:36:59.382Z,1.05
2022-08-31T14:39:47.707Z,1.20
2022-08-31T14:42:25.547Z,2.95
2022-08-31T14:44:57.865Z,1.02
2022-08-31T14:47:27.724Z,1.08
2022-08-31T14:49:58.730Z,1.35
2022-08-31T14:52:28.455Z,0.93
2022-08-31T14:54:59.375Z,1.50
2022-08-31T14:57:26.644Z,0.98
2022-08-31T15:00:02.272Z,1.80
2022-08-31T15:02:34.080Z,1.80
2022-08-31T15:05:06.440Z,1.05
2022-08-31T15:07:35.430Z,1.05
2022-08-31T15:10:02.594Z,1.10
2022-08-31T15:12:29.204Z,1.20
2022-08-31T15:14:59.889Z,1.65
2022-08-31T15:17:33.884Z,1.10
2022-08-31T15:20:03.584Z,1.02
2022-08-31T15:22:31.310Z,1.20
2022-08-31T15:24:58.042Z,2.27
2022-08-31T15:27:29.121Z,3.10
2022-08-31T15:30:02.496Z,1.00
2022-08-31T15:32:29.139Z,1.23
2022-08-31T15:35:01.678Z,0.98
2022-08-31T15:37:31.805Z,0.90
2022-08-31T15:40:03.521Z,1.02
2022-08-31T15:42:36.658Z,1.13
2022-08-31T15:45:03.937Z,0.80
2022-08-31T15:47:52.478Z,0.70
2022-08-31T15:50:23.287Z,0.70
2022-08-31T15:52:54.862Z,1.58
2022-08-31T15:55:26.541Z,1.13
2022-08-31T15:57:55.308Z,0.82
2022-08-31T16:00:23.808Z,0.90
2022-08-31T16:02:57.438Z,0.90
2022-08-31T16:05:28.590Z,0.93
2022-08-31T16:07:57.214Z,1.40
2022-08-31T16:10:24.487Z,0.90
2022-08-31T16:12:53.963Z,1.30
2022-08-31T16:15:24.936Z,0.90
2022-08-31T16:17:51.993Z,0.75
2022-08-31T16:20:21.056Z,3.15
2022-08-31T16:22:48.309Z,1.90
2022-08-31T16:25:16.273Z,1.07
2022-08-31T16:27:46.980Z,1.60
2022-08-31T16:30:15.873Z,1.63
2022-08-31T16:32:42.615Z,1.35
2022-08-31T16:35:17.039Z,0.85
2022-08-31T16:37:43.688Z,3.57
2022-08-31T16:40:12.669Z,0.90
2022-08-31T16:42:39.370Z,1.10
2022-08-31T16:45:06.428Z,2.35
2022-08-31T16:47:35.486Z,1.83
2022-08-31T16:50:08.648Z,1.10
2022-08-31T16:52:35.972Z,2.33
2022-08-31T16:55:02.904Z,1.63
2022-08-31T16:57:34.537Z,2.25
2022-08-31T17:00:03.318Z,1.70
2022-08-31T17:02:30.360Z,1.30
2022-08-31T17:05:00.617Z,3.40
2022-08-31T17:07:33.688Z,1.80
2022-08-31T17:10:06.727Z,1.40
2022-08-31T17:12:33.414Z,2.00
2022-08-31T17:15:01.511Z,3.55
2022-08-31T17:17:31.611Z,1.50
2022-08-31T17:20:01.968Z,4.47
2022-08-31T17:22:33.180Z,1.98
2022-08-31T17:25:02.661Z,1.50
2022-08-31T17:27:29.385Z,1.65
2022-08-31T17:29:56.173Z,1.83
2022-08-31T17:32:26.372Z,2.10
2022-08-31T17:34:54.895Z,3.30
2022-08-31T17:37:26.864Z,3.47
2022-08-31T17:39:56.434Z,1.83
2022-08-31T17:42:26.898Z,2.17
2022-08-31T17:44:54.558Z,2.40
2022-08-31T17:47:23.408Z,1.00
2022-08-31T17:49:50.941Z,0.97
2022-08-31T17:52:20.278Z,1.80
2022-08-31T17:54:48.548Z,1.30
2022-08-31T17:57:17.140Z,0.98
2022-08-31T17:59:46.549Z,1.60
2022-08-31T18:02:17.435Z,1.08
2022-08-31T18:04:44.453Z,1.52
2022-08-31T18:07:11.933Z,3.80
2022-08-31T18:09:44.121Z,1.60
2022-08-31T18:12:11.261Z,1.50
2022-08-31T18:14:41.555Z,2.40
2022-08-31T18:17:16.088Z,2.30
2022-08-31T18:19:44.603Z,2.25
2022-08-31T18:22:14.189Z,2.33
2022-08-31T18:24:41.667Z,2.17
2022-08-31T18:27:10.746Z,3.15
2022-08-31T18:29:38.479Z,2.83
2022-08-31T18:32:07.303Z,3.15
2022-08-31T18:34:39.058Z,2.88
2022-08-31T18:37:07.745Z,3.17
2022-08-31T18:39:52.918Z,17.20
2022-08-31T18:42:41.813Z,39.93
2022-08-31T18:45:15.930Z,2.87
2022-08-31T18:47:43.430Z,3.00
2022-08-31T18:50:10.461Z,4.80
2022-08-31T18:52:40.416Z,1.50
2022-08-31T18:55:15.506Z,4.38
2022-08-31T18:57:48.811Z,2.13
2022-08-31T19:00:18.990Z,1.70
2022-08-31T19:02:49.847Z,1.50
2022-08-31T19:05:16.692Z,2.23
2022-08-31T19:07:46.445Z,2.03
2022-08-31T19:10:14.221Z,2.08
2022-08-31T19:12:42.594Z,2.35
2022-08-31T19:15:13.264Z,1.60
2022-08-31T19:17:41.728Z,1.92
2022-08-31T19:20:12.899Z,2.05
2022-08-31T19:22:42.782Z,2.17
2022-08-31T19:25:12.074Z,2.30
2022-08-31T19:27:39.248Z,3.55
2022-08-31T19:30:10.336Z,1.90
2022-08-31T19:32:39.587Z,2.72
2022-08-31T19:35:08.423Z,1.80
2022-08-31T19:37:39.910Z,2.83
2022-08-31T19:40:07.259Z,3.45
2022-08-31T19:42:59.554Z,4.10
2022-08-31T19:45:24.209Z,2.75
2022-08-31T19:48:01.647Z,2.87
2022-08-31T19:50:28.310Z,3.08
2022-08-31T19:52:54.994Z,3.95
2022-08-31T19:55:21.657Z,5.75
2022-08-31T19:57:48.318Z,11.07
2022-08-31T20:00:16.072Z,15.70
2022-08-31T20:02:44.453Z,24.98
2022-08-31T20:05:11.996Z,30.60
2022-08-31T20:07:41.422Z,32.67
2022-08-31T20:10:08.930Z,36.97
2022-08-31T20:12:53.556Z,35.53
2022-08-31T20:15:23.318Z,44.70
2022-08-31T20:17:57.092Z,45.50
2022-08-31T20:20:26.871Z,51.45
2022-08-31T20:22:54.021Z,43.93
2022-08-31T20:25:26.193Z,55.72
2022-08-31T20:27:53.854Z,57.28
2022-08-31T20:30:20.573Z,70.63
2022-08-31T20:32:47.193Z,70.53
2022-08-31T20:35:14.136Z,61.50
2022-08-31T20:37:40.764Z,69.95
2022-08-31T20:40:15.862Z,61.15
2022-08-31T20:42:43.362Z,64.30
2022-08-31T20:45:10.161Z,59.72
2022-08-31T20:47:55.288Z,56.97
2022-08-31T20:50:28.206Z,48.45
2022-08-31T20:52:56.770Z,48.80
2022-08-31T20:55:23.626Z,48.30
2022-08-31T20:57:51.243Z,43.17
2022-08-31T21:00:22.759Z,45.10
2022-08-31T21:02:49.971Z,43.75
2022-08-31T21:08:11.593Z,46.58
2022-08-31T21:10:42.272Z,45.25
2022-08-31T21:13:12.610Z,53.45
2022-08-31T21:15:48.648Z,50.85
2022-08-31T21:18:17.485Z,57.20
2022-08-31T21:20:46.132Z,50.50
2022-08-31T21:23:13.342Z,45.20
2022-08-31T21:25:43.937Z,48.35
2022-08-31T21:28:17.756Z,55.50
2022-08-31T21:30:50.074Z,48.83
2022-08-31T21:33:17.515Z,49.92
2022-08-31T21:35:47.872Z,47.42
2022-08-31T21:38:14.492Z,44.05
2022-08-31T21:40:49.090Z,50.63
2022-08-31T21:43:16.036Z,52.30
2022-08-31T21:45:44.980Z,50.53
2022-08-31T21:48:11.619Z,50.78
2022-08-31T21:50:38.550Z,42.80
2022-08-31T21:53:09.579Z,39.58
2022-08-31T21:55:41.474Z,36.58
2022-08-31T21:58:15.313Z,37.10
2022-08-31T22:00:45.234Z,40.38
2022-08-31T22:03:12.844Z,34.50
2022-08-31T22:05:46.850Z,44.63
2022-08-31T22:08:17.902Z,46.50
2022-08-31T22:10:47.909Z,39.03
2022-08-31T22:13:30.948Z,32.05
2022-08-31T22:16:04.280Z,32.28
2022-08-31T22:21:35.993Z,31.00
2022-08-31T22:24:08.964Z,35.42
2022-08-31T22:26:45.030Z,39.63
2022-08-31T22:29:17.202Z,41.95
2022-08-31T22:31:44.122Z,40.28
2022-08-31T22:34:13.796Z,39.92
2022-08-31T22:36:43.063Z,40.45
2022-08-31T22:39:12.546Z,40.00
2022-08-31T22:41:43.656Z,47.83
2022-08-31T22:44:16.244Z,47.63
2022-08-31T22:46:46.572Z,46.85
2022-08-31T22:49:14.252Z,48.83
2022-08-31T22:51:44.245Z,44.05
2022-08-31T22:54:11.426Z,54.15
2022-08-31T22:56:39.362Z,62.22
2022-08-31T22:59:13.585Z,55.03
2022-08-31T23:01:47.928Z,62.28
2022-08-31T23:04:18.883Z,56.83
2022-08-31T23:06:46.884Z,64.77
2022-08-31T23:09:13.579Z,70.10
2022-08-31T23:11:40.301Z,68.90
2022-08-31T23:14:08.985Z,57.88
2022-08-31T23:16:46.581Z,50.97
2022-08-31T23:19:18.263Z,56.92
2022-08-31T23:21:52.515Z,66.25
2022-08-31T23:24:33.610Z,66.50
2022-08-31T23:27:04.162Z,72.88
2022-08-31T23:29:34.775Z,51.60
2022-08-31T23:32:01.575Z,61.50
2022-08-31T23:34:28.336Z,70.50
2022-08-31T23:36:55.621Z,62.93
2022-08-31T23:39:23.921Z,66.07
2022-08-31T23:41:53.175Z,65.10
2022-08-31T23:44:20.941Z,60.75
2022-08-31T23:46:48.600Z,60.03
2022-08-31T23:49:17.697Z,50.58
2022-08-31T23:51:44.677Z,59.58
2022-08-31T23:54:12.597Z,61.53
2022-08-31T23:56:41.844Z,68.38
2022-08-31T23:59:12.911Z,69.45
